Latest Weather Observations for Launceston Airport

IDT60801

Issued at 4:21 am EDT Friday 2 December 2022 (issued every 10 minutes, with the page automatically refreshed every 10 minutes)

About weather observations | Map of weather stations | Latest weather observations for TAS | Other Formats
Station Details ID: 091311 Name: LAUNCESTON AIRPORT Lat: -41.55 Lon: 147.22 Height: 166.9 m
Data from the previous 72 hours. | See also: Recent months at Launceston Airport
Date/Time
EDT
Temp
°C
App
Temp
°C
Dew
Point
°C
Rel
Hum
%
Delta-T
°C
Wind Press
QNH
hPa
Press
MSL
hPa
Rain since
9am
mm
Dir  Spd
km/h
Gust
km/h
Spd
kts
Gust
kts
02/04:00am 9.9 9.7 9.0 94 0.4 CALM 0 0 0 0 1019.4 1019.1 5.4
02/03:40am 9.7 9.5 8.9 95 0.4 CALM 0 0 0 0 1019.4 1019.1 5.4
02/03:30am 9.7 9.5 8.9 95 0.4 CALM 0 0 0 0 1019.4 1019.1 5.4
02/03:00am 9.6 9.3 8.8 95 0.4 CALM 0 0 0 0 1019.5 1019.2 5.2
02/02:45am 9.5 7.9 8.7 95 0.4 E 7 9 4 5 1019.7 1019.4 5.2
02/02:30am 9.5 7.5 8.7 95 0.4 ESE 9 11 5 6 1019.8 1019.5 5.2
02/02:00am 9.7 8.1 8.6 93 0.5 E 7 11 4 6 1019.8 1019.5 5.0
02/01:34am 10.0 8.6 8.8 92 0.6 E 6 9 3 5 1019.9 1019.6 4.8
02/01:30am 9.9 8.9 8.7 92 0.6 E 4 9 2 5 1019.9 1019.6 4.8
02/01:00am 10.1 9.9 8.9 92 0.6 CALM 0 0 0 0 1020.0 1019.7 4.8
02/12:52am 10.0 9.7 8.8 92 0.6 CALM 0 0 0 0 1020.1 1019.8 4.8
02/12:40am 10.0 9.8 8.9 93 0.5 CALM 0 0 0 0 1020.1 1019.8 4.8
02/12:30am 10.1 9.9 8.9 92 0.6 CALM 0 0 0 0 1020.1 1019.8 4.8
02/12:00am 10.1 9.9 9.2 94 0.4 CALM 0 0 0 0 1020.2 1019.9 4.8
 
Date/Time
EDT
Temp
°C
App
Temp
°C
Dew
Point
°C
Rel
Hum
%
Delta-T
°C
Wind Press
QNH
hPa
Press
MSL
hPa
Rain since
9am
mm
Dir  Spd
km/h
Gust
km/h
Spd
kts
Gust
kts
01/11:30pm 9.9 9.7 9.0 94 0.4 CALM 0 0 0 0 1020.0 1019.7 4.8
01/11:11pm 9.8 7.9 8.9 94 0.4 ENE 9 11 5 6 1020.0 1019.7 4.8
01/11:00pm 9.7 7.7 8.8 94 0.4 ENE 9 13 5 7 1020.1 1019.8 4.8
01/10:41pm 9.6 6.8 8.5 93 0.5 E 13 17 7 9 1020.1 1019.8 4.6
01/10:30pm 9.8 7.4 8.7 93 0.5 E 11 15 6 8 1020.1 1019.8 4.4
01/10:10pm 10.2 8.3 9.1 93 0.5 E 9 15 5 8 1020.1 1019.8 4.0
01/10:00pm 10.3 8.8 9.2 93 0.5 ENE 7 13 4 7 1019.9 1019.6 4.0
01/09:30pm 10.4 8.9 9.2 92 0.6 NE 7 11 4 6 1019.7 1019.4 3.4
01/09:06pm 10.4 8.5 9.2 92 0.6 ENE 9 13 5 7 1019.2 1019.0 3.2
01/09:03pm 10.3 8.0 9.1 92 0.6 E 11 15 6 8 1019.1 1018.9 3.2
01/09:00pm 10.3 8.0 9.1 92 0.6 E 11 15 6 8 1019.1 1018.9 3.2
01/08:30pm 11.1 8.7 10.0 93 0.6 ENE 13 15 7 8 1018.7 1018.5 2.6
01/08:21pm 11.6 9.7 10.5 93 0.6 E 11 15 6 8 1018.6 1018.4 2.4
01/08:00pm 12.0 10.9 10.6 91 0.7 E 7 9 4 5 1018.4 1018.2 1.2
01/07:55pm 12.0 10.9 10.6 91 0.7 E 7 11 4 6 1018.3 1018.1 1.0
01/07:52pm 12.0 10.5 10.6 91 0.7 E 9 11 5 6 1018.3 1018.1 0.8
01/07:42pm 12.2 10.0 10.8 91 0.7 ESE 13 17 7 9 1018.1 1017.9 0.6
01/07:30pm 12.4 10.1 10.5 88 1.0 ENE 13 15 7 8 1018.0 1017.8 0.4
01/07:27pm 12.6 10.7 10.5 87 1.1 E 11 15 6 8 1018.0 1017.8 0.4
01/07:00pm 13.6 12.4 10.2 80 1.8 E 7 11 4 6 1017.5 1017.3 0.0
01/06:30pm 14.5 11.2 9.7 73 2.5 NW 17 24 9 13 1016.7 1016.5 0.0
01/06:00pm 15.4 10.4 9.5 68 3.1 NW 26 35 14 19 1016.1 1015.9 0.0
01/05:30pm 15.8 11.2 9.5 66 3.3 NNW 24 32 13 17 1015.7 1015.5 0.0
01/05:00pm 16.3 11.7 9.5 64 3.6 NNW 24 32 13 17 1015.5 1015.3 0.0
01/04:30pm 18.1 13.7 10.5 61 4.1 NNW 24 32 13 17 1015.4 1015.2 0.0
01/04:00pm 18.4 15.3 8.9 54 5.0 NNW 15 20 8 11 1015.4 1015.2 0.0
01/03:30pm 19.8 18.0 7.9 46 6.2 WSW 7 13 4 7 1015.3 1015.1 0.0
01/03:00pm 19.5 17.7 7.9 47 6.0 SSE 7 15 4 8 1015.4 1015.2 0.0
01/02:30pm 18.7 15.7 6.2 44 6.2 SE 11 15 6 8 1015.5 1015.3 0.0
01/02:00pm 17.5 15.2 7.3 51 5.2 SSE 9 19 5 10 1015.7 1015.5 0.0
01/01:30pm 18.7 15.8 8.1 50 5.5 SSW 13 20 7 11 1016.0 1015.8 0.0
01/01:00pm 18.2 15.6 7.6 50 5.4 ESE 11 20 6 11 1016.3 1016.1 0.0
01/12:30pm 17.5 15.2 7.5 52 5.1 S 9 15 5 8 1016.5 1016.3 0.0
01/12:00pm 16.2 12.8 6.1 51 4.9 S 13 20 7 11 1016.7 1016.5 0.0
01/11:30am 16.1 12.6 7.1 55 4.5 SSE 15 20 8 11 1016.7 1016.5 0.0
01/11:00am 16.6 12.7 7.3 54 4.7 SE 17 22 9 12 1016.8 1016.6 0.0
01/10:30am 16.3 12.0 7.8 57 4.3 SSE 20 28 11 15 1017.0 1016.9 0.0
01/10:00am 15.3 10.4 6.8 57 4.2 SSE 22 30 12 16 1016.9 1016.8 0.0
01/09:30am 14.6 9.2 6.2 57 4.1 SSE 24 32 13 17 1016.7 1016.6 0.0
01/09:00am 13.0 7.9 5.9 62 3.4 SSE 22 26 12 14 1016.6 1016.5 0.0
01/08:30am 12.5 7.0 5.7 63 3.2 SE 24 30 13 16 1016.7 1016.6 0.0
01/08:00am 11.6 7.2 6.5 71 2.4 SE 19 24 10 13 1016.5 1016.4 0.0
01/07:30am 11.3 8.2 7.4 77 1.9 SSE 13 19 7 10 1016.3 1016.2 0.0
01/07:00am 10.2 6.1 6.0 75 2.0 SSE 17 24 9 13 1016.2 1016.1 0.0
01/06:30am 9.6 5.9 6.1 79 1.6 SW 15 19 8 10 1015.8 1015.7 0.0
01/06:00am 8.7 5.9 5.3 79 1.5 SW 9 13 5 7 1015.5 1015.4 0.0
01/05:30am 7.3 4.3 3.9 79 1.5 WSW 9 9 5 5 1015.0 1014.9 0.0
01/05:00am 7.5 5.4 3.9 78 1.6 WNW 4 7 2 4 1014.8 1014.7 0.0
01/04:30am 8.3 7.2 5.2 81 1.4 CALM 0 0 0 0 1014.8 1014.7 0.0
01/04:00am 7.4 5.4 4.2 80 1.4 NE 4 9 2 5 1014.7 1014.6 0.0
01/03:30am 8.2 6.5 4.0 75 1.8 SE 2 6 1 3 1014.6 1014.5 0.0
01/03:00am 9.1 5.4 4.5 73 2.1 SSW 13 15 7 8 1014.7 1014.6 0.0
01/02:30am 9.5 5.8 4.3 70 2.3 S 13 17 7 9 1014.7 1014.6 0.0
01/02:00am 9.5 5.8 4.7 72 2.2 S 13 15 7 8 1014.5 1014.4 0.0
01/01:30am 9.9 6.2 4.5 69 2.4 S 13 15 7 8 1014.6 1014.5 0.0
01/01:00am 10.2 6.9 4.4 67 2.6 S 11 13 6 7 1014.8 1014.7 0.0
01/12:30am 9.9 6.1 4.1 67 2.6 SW 13 15 7 8 1015.1 1015.0 0.0
01/12:00am 10.8 7.3 3.6 61 3.2 SW 11 15 6 8 1014.9 1014.8 0.0
 
Date/Time
EDT
Temp
°C
App
Temp
°C
Dew
Point
°C
Rel
Hum
%
Delta-T
°C
Wind Press
QNH
hPa
Press
MSL
hPa
Rain since
9am
mm
Dir  Spd
km/h
Gust
km/h
Spd
kts
Gust
kts
30/11:30pm 10.9 8.0 4.4 64 2.9 SSW 9 11 5 6 1014.9 1014.8 0.0
30/11:00pm 11.6 8.2 3.9 59 3.5 S 11 13 6 7 1014.7 1014.6 0.0
30/10:30pm 12.4 8.6 4.1 57 3.8 S 13 15 7 8 1014.9 1014.8 0.0
30/10:00pm 13.4 9.3 4.6 55 4.1 S 15 17 8 9 1014.8 1014.7 0.0
30/09:30pm 13.7 9.8 5.3 57 4.0 S 15 19 8 10 1014.5 1014.4 0.0
30/09:00pm 14.3 10.7 5.1 54 4.3 SSW 13 19 7 10 1014.0 1013.9 0.0
30/08:30pm 15.5 11.9 5.1 50 5.0 SSW 13 17 7 9 1013.6 1013.4 0.0
30/08:00pm 17.4 13.1 5.4 45 5.8 SW 17 20 9 11 1013.1 1012.9 0.0
30/07:30pm 18.5 14.2 5.4 42 6.4 SW 17 24 9 13 1012.6 1012.5 0.0
30/07:00pm 19.1 14.4 5.2 40 6.8 SSW 19 28 10 15 1012.4 1012.3 0.0
30/06:30pm 19.5 14.9 6.3 42 6.6 SW 20 26 11 14 1011.9 1011.8 0.0
30/06:00pm 21.0 17.6 5.8 37 7.6 SW 13 24 7 13 1011.6 1011.5 0.0
30/05:30pm 21.2 17.3 7.1 40 7.3 W 17 26 9 14 1011.5 1011.4 0.0
30/05:00pm 20.5 15.8 7.8 44 6.6 W 22 32 12 17 1011.4 1011.3 0.0
30/04:30pm 22.5 18.5 8.2 40 7.6 W 19 26 10 14 1011.3 1011.2 0.0
30/04:00pm 22.1 17.7 8.9 43 7.1 WNW 22 35 12 19 1011.3 1011.2 0.0
30/03:30pm 22.2 17.7 8.7 42 7.2 WNW 22 32 12 17 1011.5 1011.4 0.0
30/03:00pm 21.7 16.7 7.9 41 7.3 WNW 24 33 13 18 1011.7 1011.6 0.0
30/02:30pm 21.8 16.8 8.0 41 7.3 WNW 24 35 13 19 1012.0 1011.9 0.0
30/02:00pm 20.8 16.8 10.6 52 5.6 NW 22 30 12 16 1012.2 1012.1 0.0
30/01:30pm 19.2 14.6 8.2 49 5.7 NNW 22 33 12 18 1012.4 1012.3 0.0
30/01:00pm 20.2 15.9 7.9 45 6.4 NW 20 35 11 19 1012.6 1012.5 0.0
30/12:30pm 20.5 16.8 10.3 52 5.6 NW 20 30 11 16 1012.9 1012.8 0.0
30/12:00pm 19.6 15.3 9.5 52 5.4 NW 22 35 12 19 1013.3 1013.1 0.0
30/11:30am 17.5 12.9 8.1 54 4.8 NW 22 32 12 17 1013.7 1013.5 0.0
30/11:00am 17.6 12.8 8.7 56 4.6 NW 24 35 13 19 1013.9 1013.8 0.0
30/10:30am 17.4 13.4 9.1 58 4.3 NW 20 30 11 16 1014.1 1014.0 0.0
30/10:00am 16.0 10.5 7.7 58 4.2 NW 26 37 14 20 1014.3 1014.2 0.0
30/09:30am 15.2 10.0 8.7 65 3.3 NNW 26 35 14 19 1014.4 1014.3 0.0
30/09:00am 14.8 9.3 9.2 69 2.9 NNW 28 35 15 19 1014.5 1014.4 0.2
30/08:30am 13.6 8.6 8.0 69 2.8 N 24 33 13 18 1014.4 1014.3 0.2
30/08:00am 12.3 8.1 8.4 77 1.9 NNW 20 30 11 16 1014.4 1014.3 0.2
30/07:30am 10.9 7.6 8.0 82 1.4 N 15 20 8 11 1014.5 1014.4 0.2
30/07:00am 9.1 6.3 6.9 86 1.0 N 11 15 6 8 1014.3 1014.2 0.2
30/06:30am 7.2 4.2 6.1 93 0.5 NNE 11 13 6 7 1014.1 1014.0 0.2
30/06:00am 4.7 0.8 3.5 92 0.5 N 13 13 7 7 1013.9 1013.8 0.2
30/05:30am 4.7 1.2 3.5 92 0.5 N 11 13 6 7 1013.6 1013.4 0.2
30/05:00am 3.9 -0.6 2.4 90 0.6 NNW 15 15 8 8 1013.6 1013.4 0.2
30/04:30am 4.4 0.7 2.4 87 0.8 N 11 13 6 7 1013.7 1013.5 0.2
30/04:00am 4.7 0.0 3.0 89 0.7 NNW 17 17 9 9 1013.3 1013.1 0.2
30/03:30am 4.8 0.3 2.3 84 1.0 NW 15 17 8 9 1013.4 1013.2 0.2
30/03:00am 5.1 1.2 3.3 88 0.8 NNW 13 15 7 8 1013.3 1013.1 0.2
30/02:30am 4.5 0.1 2.5 87 0.8 N 15 17 8 9 1013.3 1013.1 0.2
30/02:00am 5.3 1.2 2.3 81 1.2 NNW 13 15 7 8 1013.5 1013.3 0.2
30/01:30am 5.5 1.4 2.2 79 1.3 NNW 13 15 7 8 1013.6 1013.4 0.2
30/01:00am 5.3 0.8 2.1 80 1.3 NW 15 17 8 9 1013.7 1013.5 0.2
30/12:30am 5.7 1.2 2.0 77 1.5 NNW 15 15 8 8 1013.7 1013.5 0.2
30/12:00am 6.3 2.2 2.4 76 1.6 NW 13 15 7 8 1013.9 1013.8 0.2
 
Date/Time
EDT
Temp
°C
App
Temp
°C
Dew
Point
°C
Rel
Hum
%
Delta-T
°C
Wind Press
QNH
hPa
Press
MSL
hPa
Rain since
9am
mm
Dir  Spd
km/h
Gust
km/h
Spd
kts
Gust
kts
29/11:30pm 7.0 3.1 3.3 77 1.6 N 13 15 7 8 1014.1 1014.0 0.2
29/11:00pm 7.5 3.6 3.2 74 1.8 NW 13 17 7 9 1014.1 1014.0 0.2
29/10:30pm 8.2 3.9 3.3 71 2.1 NNW 15 17 8 9 1013.8 1013.7 0.2
29/10:00pm 8.3 3.8 2.3 66 2.5 NNW 15 17 8 9 1013.7 1013.5 0.2
29/09:30pm 12.3 7.3 1.6 48 4.6 WNW 17 22 9 12 1013.3 1013.1 0.2
29/09:00pm 12.5 6.9 1.5 47 4.7 W 20 30 11 16 1013.1 1012.9 0.2
29/08:30pm 13.6 8.0 1.3 43 5.3 W 20 26 11 14 1012.9 1012.8 0.2
29/08:00pm 14.4 9.8 1.3 41 5.7 WNW 15 20 8 11 1012.7 1012.6 0.2
29/07:30pm 15.5 10.5 1.6 39 6.2 WNW 17 22 9 12 1012.3 1012.2 0.2
29/07:00pm 16.1 10.6 1.8 38 6.4 WNW 20 28 11 15 1012.1 1012.0 0.2
29/06:30pm 16.6 10.2 0.7 34 7.0 W 24 32 13 17 1011.6 1011.5 0.2
29/06:00pm 16.4 10.1 1.7 37 6.6 W 24 39 13 21 1011.2 1011.1 0.2
29/05:30pm 17.7 11.5 2.1 35 7.1 W 24 33 13 18 1011.1 1011.0 0.2
29/05:00pm 17.7 11.4 3.6 39 6.6 W 26 39 14 21 1010.8 1010.7 0.2
29/04:30pm 16.9 11.1 2.1 37 6.7 W 22 35 12 19 1010.8 1010.7 0.2
29/04:00pm 17.7 11.6 2.8 37 6.9 W 24 32 13 17 1010.7 1010.6 0.2
29/03:30pm 16.5 10.8 2.9 40 6.2 W 22 30 12 16 1010.4 1010.3 0.2
29/03:00pm 17.7 11.7 1.2 33 7.4 WNW 22 33 12 18 1010.5 1010.4 0.2
29/02:30pm 17.3 11.4 1.7 35 7.0 WNW 22 41 12 22 1010.3 1010.2 0.2
29/02:00pm 16.5 10.3 2.2 38 6.5 W 24 33 13 18 1010.1 1010.0 0.2
29/01:30pm 15.6 9.4 2.4 41 6.0 WNW 24 35 13 19 1009.9 1009.8 0.2
29/01:00pm 15.2 9.8 2.4 42 5.8 WNW 20 26 11 14 1009.9 1009.8 0.2
29/12:30pm 16.1 10.6 3.9 44 5.7 W 22 33 12 18 1010.0 1009.9 0.2
29/12:00pm 15.8 10.5 4.8 48 5.2 NNW 22 35 12 19 1009.9 1009.8 0.2
29/11:30am 13.6 8.4 3.4 50 4.6 NW 20 30 11 16 1009.6 1009.5 0.2
29/11:00am 13.7 8.3 1.4 43 5.4 W 19 28 10 15 1009.5 1009.4 0.2
29/10:30am 13.4 8.0 1.1 43 5.3 W 19 30 10 16 1009.3 1009.2 0.2
29/10:00am 13.8 8.4 2.7 47 5.0 W 20 33 11 18 1008.7 1008.6 0.0
29/09:30am 13.1 8.6 4.0 54 4.2 WNW 17 24 9 13 1008.6 1008.4 0.0
29/09:00am 12.3 7.3 4.5 59 3.6 NW 20 26 11 14 1008.4 1008.2 1.6
29/08:30am 11.2 6.0 3.7 60 3.4 NNW 20 28 11 15 1007.9 1007.7 1.6
29/08:00am 10.3 6.8 5.3 71 2.3 N 13 22 7 12 1007.5 1007.3 1.6
29/07:30am 8.8 5.9 4.4 74 2.0 NNE 9 13 5 7 1007.4 1007.2 1.6
29/07:00am 7.1 4.4 3.5 78 1.5 NW 7 9 4 5 1006.9 1006.7 1.6
29/06:30am 5.7 2.6 3.4 85 1.0 NW 9 11 5 6 1005.8 1005.7 1.6
29/06:00am 4.2 0.4 1.6 83 1.0 N 11 15 6 8 1005.6 1005.5 1.6
29/05:30am 5.0 1.7 2.4 83 1.1 NW 9 15 5 8 1005.1 1005.0 1.6
29/05:00am 4.5 0.0 2.2 85 0.9 N 15 17 8 9 1004.7 1004.6 1.6
29/04:30am 5.4 2.4 1.7 77 1.5 NNW 7 9 4 5 1004.2 1004.1 1.6

Other formats

Comma delimited format used in spreadsheet applications
http://www.bom.gov.au/fwo/IDT60801/IDT60801.95966.axf

JavaScript Object Notation format (JSON) in row-major order
http://www.bom.gov.au/fwo/IDT60801/IDT60801.95966.json

Data quality

Most of these data are generated automatically and are frequently updated. Quality checks on data are not normally performed. It is possible for incorrect values to appear. Refer to information at About Latest Weather Observations and please check the disclaimer before using these data.